Time;durP1;ratioP1;P1;durP2;ratioP2;P2;SDS_P1;SDS_P2;PMS_P1;PMS_P2;Temp;Humidity;BMP_temperature;BMP_pressure;BME280_temperature;BME280_humidity;BME280_pressure;Samples;Min_cycle;Max_cycle;Signal;HPM_P1;HPM_P2
2021/05/15 00:00:52;;;;;;;7.83;5.12;;;;;;;14.24;73.14;100060.25;1694141;84;21365;-57
2021/05/15 00:03:57;;;;;;;7.10;5.00;;;;;;;14.20;73.38;100066.70;1694037;83;21441;-57
2021/05/15 00:07:02;;;;;;;8.18;4.90;;;;;;;14.14;73.56;100063.92;1693715;83;21239;-57
2021/05/15 00:10:07;;;;;;;10.45;4.80;;;;;;;14.07;73.72;100054.77;1693743;84;21352;-57
2021/05/15 00:13:11;;;;;;;6.87;4.47;;;;;;;14.00;73.79;100056.67;1693675;83;21240;-57
2021/05/15 00:16:16;;;;;;;8.18;4.72;;;;;;;13.95;73.94;100069.67;1693750;84;21282;-57
2021/05/15 00:19:24;;;;;;;12.90;4.87;;;;;;;13.92;74.07;100071.98;1693465;83;21295;-58
2021/05/15 00:22:29;;;;;;;6.70;4.62;;;;;;;13.91;74.25;100060.11;1693285;83;21760;-57
2021/05/15 00:25:34;;;;;;;8.30;4.55;;;;;;;13.92;74.29;100058.22;1693469;84;21271;-57
2021/05/15 00:28:39;;;;;;;7.67;3.75;;;;;;;13.90;74.32;100061.19;1674116;84;21261;-56
2021/05/15 00:31:45;;;;;;;9.48;4.35;;;;;;;13.89;74.38;100062.22;1674065;85;21239;-56
2021/05/15 00:34:49;;;;;;;6.53;3.95;;;;;;;13.89;74.42;100078.72;1674067;85;21261;-56
2021/05/15 00:37:55;;;;;;;8.85;4.58;;;;;;;13.91;74.48;100082.64;1673978;84;21270;-57
2021/05/15 00:41:00;;;;;;;7.05;4.17;;;;;;;13.92;74.50;100078.86;1674005;85;21230;-57
2021/05/15 00:47:22;;;;;;;8.95;5.03;;;;;;;13.97;74.37;100073.59;1659288;84;21254;-58
2021/05/15 00:50:28;;;;;;;11.88;4.72;;;;;;;13.97;74.33;100081.85;1673782;85;21218;-58
2021/05/15 00:53:33;;;;;;;8.95;3.87;;;;;;;13.94;74.16;100075.39;1673891;84;21400;-58
2021/05/15 00:56:40;;;;;;;7.85;4.10;;;;;;;13.93;74.13;100065.41;1673863;86;21218;-58
2021/05/15 00:59:45;;;;;;;8.93;4.10;;;;;;;13.91;74.11;100071.64;1673912;86;21263;-58
2021/05/15 01:02:49;;;;;;;6.65;3.95;;;;;;;13.88;74.04;100080.31;1673945;84;21902;-57
2021/05/15 01:05:54;;;;;;;7.75;3.83;;;;;;;13.86;74.10;100079.69;1669153;82;21611;-58
2021/05/15 01:09:01;;;;;;;8.38;4.47;;;;;;;13.86;74.07;100078.31;1698056;83;21725;-57
2021/05/15 01:12:05;;;;;;;7.10;4.30;;;;;;;13.82;74.07;100070.13;1698360;83;21336;-57
2021/05/15 01:15:11;;;;;;;8.75;4.47;;;;;;;13.77;74.04;100073.49;1683081;84;21592;-57
2021/05/15 01:18:16;;;;;;;11.12;4.65;;;;;;;13.74;74.01;100092.30;1698288;83;21382;-56
2021/05/15 01:21:20;;;;;;;9.33;5.22;;;;;;;13.69;74.07;100099.80;1698259;84;21383;-57
2021/05/15 01:24:25;;;;;;;14.87;8.28;;;;;;;13.63;74.11;100103.88;1698207;83;21466;-58
2021/05/15 01:27:30;;;;;;;32.50;19.95;;;;;;;13.58;74.26;100107.75;1698359;83;21422;-57
2021/05/15 01:30:35;;;;;;;33.10;17.67;;;;;;;13.53;74.44;100110.59;1697995;84;21386;-57
2021/05/15 01:33:39;;;;;;;32.55;15.20;;;;;;;13.51;74.59;100120.94;1698317;83;21231;-57
2021/05/15 01:36:44;;;;;;;21.40;10.95;;;;;;;13.46;74.71;100120.69;1698410;84;21723;-57
2021/05/15 01:39:48;;;;;;;23.38;12.47;;;;;;;13.44;74.86;100118.69;1697601;84;21247;-56
2021/05/15 01:42:54;;;;;;;23.15;12.28;;;;;;;13.40;75.03;100121.49;1697577;83;21367;-56
2021/05/15 01:45:58;;;;;;;36.10;17.15;;;;;;;13.39;75.19;100125.31;1697859;84;21366;-57
2021/05/15 01:49:02;;;;;;;45.85;19.82;;;;;;;13.35;75.26;100119.86;1696527;83;21267;-57
2021/05/15 01:52:07;;;;;;;31.68;15.40;;;;;;;13.32;75.38;100124.39;1698071;83;21777;-56
2021/05/15 01:55:19;;;;;;;10.58;6.42;;;;;;;13.28;75.37;100127.23;1698019;84;21256;-58
2021/05/15 01:58:23;;;;;;;8.58;5.28;;;;;;;13.26;75.53;100129.84;1698194;83;21375;-58
2021/05/15 02:01:28;;;;;;;12.13;6.83;;;;;;;13.22;75.73;100133.50;1698192;84;21914;-57
2021/05/15 02:04:32;;;;;;;12.07;6.97;;;;;;;13.20;75.89;100135.63;1698079;84;21323;-57
2021/05/15 02:07:37;;;;;;;12.90;6.85;;;;;;;13.20;76.00;100142.49;1696518;83;21230;-57
2021/05/15 02:10:42;;;;;;;13.62;8.28;;;;;;;13.21;76.10;100142.81;1720966;83;21201;-57
2021/05/15 02:13:47;;;;;;;17.30;9.35;;;;;;;13.21;76.13;100135.08;1721150;82;21330;-57
2021/05/15 02:16:52;;;;;;;14.18;7.35;;;;;;;13.24;76.24;100144.33;1721061;83;21836;-57
2021/05/15 02:19:57;;;;;;;10.25;5.60;;;;;;;13.25;76.26;100146.88;1721078;83;21204;-58
2021/05/15 02:23:02;;;;;;;12.98;6.67;;;;;;;13.28;76.31;100139.60;1720864;82;21767;-58
2021/05/15 02:26:07;;;;;;;12.03;6.92;;;;;;;13.28;76.26;100142.86;1721432;82;21554;-59
2021/05/15 02:29:12;;;;;;;12.60;5.10;;;;;;;13.29;76.30;100141.29;1720436;82;21226;-59
2021/05/15 02:32:17;;;;;;;9.73;4.55;;;;;;;13.31;76.31;100138.34;1721134;82;21266;-57
2021/05/15 02:35:22;;;;;;;5.28;4.20;;;;;;;13.32;76.25;100139.52;1721400;83;21211;-58
2021/05/15 02:38:27;;;;;;;8.43;4.90;;;;;;;13.31;76.22;100143.33;1721043;82;21234;-57
2021/05/15 02:41:31;;;;;;;9.65;5.03;;;;;;;13.30;76.30;100144.35;1720919;83;21215;-58
2021/05/15 02:44:36;;;;;;;6.72;4.05;;;;;;;13.30;76.30;100141.60;1721180;83;21255;-59
2021/05/15 02:47:43;;;;;;;8.13;5.00;;;;;;;13.28;76.40;100145.10;1721593;82;21211;-60
2021/05/15 02:50:48;;;;;;;6.10;4.47;;;;;;;13.27;76.52;100150.25;1721070;83;21215;-60
2021/05/15 02:53:55;;;;;;;6.83;4.42;;;;;;;13.28;76.62;100145.10;1721177;82;21238;-58
2021/05/15 02:57:00;;;;;;;7.22;4.87;;;;;;;13.30;76.72;100149.85;1720451;83;21192;-58
2021/05/15 03:00:05;;;;;;;6.00;4.40;;;;;;;13.32;76.72;100144.15;1721156;83;21199;-58
2021/05/15 03:03:11;;;;;;;9.58;4.10;;;;;;;13.36;76.69;100152.34;1721212;82;21266;-58
2021/05/15 03:06:16;;;;;;;15.83;5.33;;;;;;;13.37;76.65;100145.27;1721524;82;21542;-59
2021/05/15 03:09:21;;;;;;;8.08;4.30;;;;;;;13.39;76.59;100151.42;1717420;80;21218;-59
2021/05/15 03:12:25;;;;;;;6.65;4.33;;;;;;;13.41;76.53;100150.67;1715747;82;21251;-59
2021/05/15 03:15:31;;;;;;;9.30;4.72;;;;;;;13.42;76.56;100151.54;1714817;83;21203;-58
2021/05/15 03:18:37;;;;;;;8.70;4.55;;;;;;;13.44;76.64;100148.94;1715954;82;21319;-58
2021/05/15 03:21:41;;;;;;;6.75;4.70;;;;;;;13.49;76.78;100155.20;1715943;83;21322;-57
2021/05/15 03:24:48;;;;;;;8.00;4.45;;;;;;;13.50;76.89;100148.64;1715974;82;21334;-58
2021/05/15 03:27:53;;;;;;;7.10;4.62;;;;;;;13.56;76.99;100154.70;1715903;82;21212;-57
2021/05/15 03:30:59;;;;;;;7.08;4.50;;;;;;;13.65;77.04;100154.05;1715954;83;21346;-57
2021/05/15 03:34:04;;;;;;;6.42;4.50;;;;;;;13.72;77.00;100159.05;1716192;82;21473;-59
2021/05/15 03:37:09;;;;;;;6.55;4.35;;;;;;;13.80;76.90;100161.12;1715142;82;21215;-57
2021/05/15 03:40:15;;;;;;;14.00;5.35;;;;;;;13.90;76.81;100159.38;1715623;83;21353;-59
2021/05/15 03:43:20;;;;;;;9.30;5.62;;;;;;;14.00;76.70;100162.08;1716266;82;21250;-58
2021/05/15 03:46:24;;;;;;;8.48;4.60;;;;;;;14.09;76.64;100154.52;1715900;83;21342;-58
2021/05/15 03:49:31;;;;;;;6.80;4.55;;;;;;;14.18;76.64;100155.52;1716607;82;21381;-58
2021/05/15 03:52:37;;;;;;;4.60;3.85;;;;;;;14.31;76.46;100153.39;1715945;82;21362;-56
2021/05/15 03:55:43;;;;;;;8.55;5.15;;;;;;;14.42;76.25;100145.91;1716774;82;21350;-57
2021/05/15 03:58:49;;;;;;;4.78;3.80;;;;;;;14.52;76.05;100146.38;1716799;82;21370;-58
2021/05/15 04:01:54;;;;;;;5.67;4.15;;;;;;;14.62;75.85;100144.91;1715715;83;21227;-56
2021/05/15 04:04:59;;;;;;;7.90;4.50;;;;;;;14.75;75.69;100150.98;1716232;82;21216;-57
2021/05/15 04:08:04;;;;;;;9.60;4.00;;;;;;;14.86;75.41;100151.23;1715933;82;21611;-56
2021/05/15 04:11:09;;;;;;;10.23;4.30;;;;;;;15.00;75.10;100153.47;1715973;83;21271;-58
2021/05/15 04:17:28;;;;;;;8.85;4.35;;;;;;;15.18;74.31;100136.31;1716125;82;21357;-57
2021/05/15 04:20:28;;;;;;;7.33;4.15;;;;;;;15.26;74.05;100134.72;1715988;83;21902;-58
2021/05/15 04:23:32;;;;;;;6.85;4.25;;;;;;;15.34;73.82;100138.13;1716623;82;21385;-58
2021/05/15 04:26:38;;;;;;;7.33;3.90;;;;;;;15.43;73.48;100137.43;1716406;82;21204;-58
2021/05/15 04:29:47;;;;;;;5.85;4.15;;;;;;;15.48;73.15;100132.95;1715761;83;21374;-56
2021/05/15 04:32:50;;;;;;;11.90;4.35;;;;;;;15.54;72.93;100137.61;1716256;82;21361;-57
2021/05/15 04:35:56;;;;;;;5.78;4.35;;;;;;;15.61;72.67;100130.71;1715228;83;21314;-58
2021/05/15 04:39:01;;;;;;;7.55;4.60;;;;;;;15.65;72.42;100135.58;1716418;82;21380;-54
2021/05/15 04:42:06;;;;;;;10.45;4.50;;;;;;;15.73;72.36;100143.64;1716922;82;21243;-57
2021/05/15 04:45:16;;;;;;;9.00;4.75;;;;;;;15.80;72.18;100142.25;1715925;83;21399;-58
2021/05/15 04:48:23;;;;;;;7.92;4.37;;;;;;;15.87;72.16;100142.55;1716394;82;21390;-57
2021/05/15 04:51:28;;;;;;;9.78;4.37;;;;;;;15.96;71.98;100134.37;1716812;82;21372;-57
2021/05/15 04:54:34;;;;;;;12.07;4.78;;;;;;;16.06;71.94;100144.96;1716483;82;21351;-57
2021/05/15 04:57:38;;;;;;;9.03;4.60;;;;;;;16.12;71.63;100132.52;1716517;81;21373;-58
2021/05/15 05:00:43;;;;;;;6.47;4.37;;;;;;;16.22;71.37;100137.58;1716573;82;21346;-59
2021/05/15 05:03:51;;;;;;;12.82;5.92;;;;;;;16.26;71.10;100136.06;1716474;82;21232;-57
2021/05/15 05:06:57;;;;;;;15.88;6.20;;;;;;;16.32;70.95;100138.80;1716123;83;21374;-56
2021/05/15 05:10:02;;;;;;;11.83;5.55;;;;;;;16.41;71.04;100142.18;1716151;81;21212;-55
2021/05/15 05:13:12;;;;;;;8.45;4.53;;;;;;;16.53;70.92;100144.59;1716073;82;21819;-58
2021/05/15 05:16:18;;;;;;;11.48;4.80;;;;;;;16.66;70.54;100143.14;1716936;82;21350;-57
2021/05/15 05:19:23;;;;;;;7.45;4.00;;;;;;;16.75;70.27;100134.90;1716899;82;21373;-56
2021/05/15 05:22:29;;;;;;;5.97;3.85;;;;;;;16.84;69.95;100135.50;1716762;82;21879;-56
2021/05/15 05:25:34;;;;;;;7.50;3.70;;;;;;;16.92;69.68;100138.83;1716412;83;21349;-56
2021/05/15 05:28:38;;;;;;;13.25;4.10;;;;;;;16.99;69.57;100142.94;1716309;82;21267;-57
2021/05/15 05:31:44;;;;;;;9.73;4.10;;;;;;;17.08;69.15;100146.59;1715976;82;21295;-57
2021/05/15 05:34:49;;;;;;;9.00;4.12;;;;;;;17.18;69.02;100151.63;1716442;83;21215;-57
2021/05/15 05:37:56;;;;;;;12.13;4.28;;;;;;;17.28;68.66;100142.30;1699814;82;21369;-55
2021/05/15 05:41:02;;;;;;;9.88;4.00;;;;;;;17.35;68.38;100149.47;1716088;83;21389;-56
2021/05/15 05:44:06;;;;;;;9.83;3.77;;;;;;;17.46;68.08;100160.37;1716679;82;21235;-58
2021/05/15 05:47:12;;;;;;;13.90;4.72;;;;;;;17.57;67.74;100161.02;1715995;82;21393;-57
2021/05/15 05:50:18;;;;;;;11.05;4.42;;;;;;;17.67;67.61;100162.22;1716400;83;21224;-54
2021/05/15 05:53:23;;;;;;;7.55;3.42;;;;;;;17.78;67.25;100164.24;1716709;82;21398;-56
2021/05/15 05:56:31;;;;;;;13.72;3.75;;;;;;;17.88;66.98;100162.34;1715044;83;21215;-58
2021/05/15 05:59:38;;;;;;;12.78;4.10;;;;;;;17.96;66.46;100162.05;1715790;83;21360;-56
2021/05/15 06:02:43;;;;;;;9.23;3.62;;;;;;;18.04;66.38;100164.52;1714655;82;21796;-55
2021/05/15 06:05:49;;;;;;;5.72;2.98;;;;;;;18.14;65.89;100163.43;1686709;85;21790;-56
2021/05/15 06:08:56;;;;;;;8.08;3.20;;;;;;;18.21;65.54;100163.36;1686368;83;21866;-56
2021/05/15 06:12:00;;;;;;;11.57;3.42;;;;;;;18.28;65.37;100162.23;1683557;81;21421;-56
2021/05/15 06:15:06;;;;;;;6.25;3.35;;;;;;;18.40;65.39;100166.47;1678791;85;21801;-54
2021/05/15 06:18:10;;;;;;;8.03;3.45;;;;;;;18.51;65.00;100165.16;1679117;84;21221;-55
2021/05/15 06:21:16;;;;;;;9.73;3.15;;;;;;;18.62;64.69;100165.77;1679214;85;21204;-56
2021/05/15 06:24:22;;;;;;;6.78;2.98;;;;;;;18.73;64.13;100167.75;1679190;84;21405;-58
2021/05/15 06:27:27;;;;;;;7.85;2.90;;;;;;;18.84;63.81;100168.88;1679396;84;21236;-54
2021/05/15 06:30:33;;;;;;;4.67;2.40;;;;;;;18.91;62.69;100170.50;1679431;85;21433;-56
2021/05/15 06:33:37;;;;;;;5.33;2.22;;;;;;;18.98;62.19;100175.95;1679467;84;21362;-55
2021/05/15 06:36:42;;;;;;;5.35;3.05;;;;;;;19.05;61.57;100170.61;1679066;85;21346;-56
2021/05/15 06:39:48;;;;;;;6.70;2.52;;;;;;;19.16;61.35;100180.91;1679179;85;21186;-58
2021/05/15 06:42:53;;;;;;;3.85;2.30;;;;;;;19.23;60.50;100178.03;1679718;84;21253;-57
2021/05/15 06:45:58;;;;;;;4.45;2.30;;;;;;;19.31;59.77;100170.79;1689213;84;21323;-56
2021/05/15 06:49:05;;;;;;;4.60;2.30;;;;;;;19.37;59.52;100171.22;1707151;84;21268;-57
2021/05/15 06:52:10;;;;;;;6.47;2.25;;;;;;;19.45;59.28;100168.63;1705246;84;21654;-56
2021/05/15 06:55:16;;;;;;;6.20;2.50;;;;;;;19.52;58.82;100169.39;1703016;84;21215;-57
2021/05/15 06:58:21;;;;;;;5.90;2.50;;;;;;;19.59;58.08;100176.52;1704569;82;21879;-55
2021/05/15 07:01:26;;;;;;;5.33;2.55;;;;;;;19.65;57.74;100170.53;1707322;84;21223;-54
2021/05/15 07:04:31;;;;;;;5.83;2.47;;;;;;;19.73;56.83;100179.36;1707823;84;21275;-55
2021/05/15 07:07:35;;;;;;;5.08;2.55;;;;;;;19.80;56.40;100173.70;1702107;83;21254;-58
2021/05/15 07:10:40;;;;;;;4.15;1.80;;;;;;;19.87;55.93;100191.94;1703064;84;21756;-56
2021/05/15 07:13:45;;;;;;;4.05;2.02;;;;;;;19.93;55.47;100177.64;1703451;80;21745;-59
2021/05/15 07:16:51;;;;;;;4.00;2.33;;;;;;;20.00;55.15;100186.14;1702584;84;21365;-54
2021/05/15 07:19:59;;;;;;;5.22;2.83;;;;;;;20.09;55.30;100189.42;1670514;86;21838;-55
2021/05/15 07:23:07;;;;;;;15.60;3.05;;;;;;;20.15;55.80;100184.31;1702334;83;21760;-57
2021/05/15 07:26:10;;;;;;;5.17;2.00;;;;;;;20.26;55.00;100194.04;1702787;84;21378;-58
2021/05/15 07:29:15;;;;;;;6.12;2.17;;;;;;;20.34;53.81;100181.69;1702946;83;21228;-57
2021/05/15 07:32:20;;;;;;;6.45;2.42;;;;;;;20.37;53.83;100183.45;1702990;83;21315;-53
2021/05/15 07:35:24;;;;;;;8.55;2.25;;;;;;;20.43;53.82;100183.00;1703016;84;21318;-57
2021/05/15 07:38:29;;;;;;;7.17;2.85;;;;;;;20.49;54.20;100188.42;1702797;83;21263;-58
2021/05/15 07:41:35;;;;;;;5.50;2.45;;;;;;;20.56;54.31;100186.37;1702851;84;21217;-56
2021/05/15 07:44:40;;;;;;;4.90;1.70;;;;;;;20.64;54.16;100191.52;1692135;84;21258;-58
2021/05/15 07:47:47;;;;;;;5.42;2.00;;;;;;;20.72;54.03;100200.05;1687267;84;21238;-55
2021/05/15 07:50:54;;;;;;;4.83;2.40;;;;;;;20.75;54.11;100192.06;1685952;85;21238;-57
2021/05/15 07:54:01;;;;;;;13.70;2.60;;;;;;;20.81;54.50;100195.78;1669321;86;21244;-55
2021/05/15 07:57:06;;;;;;;3.27;2.10;;;;;;;20.92;53.50;100196.30;1687780;83;21207;-55
2021/05/15 08:00:14;;;;;;;2.72;2.00;;;;;;;21.02;53.64;100192.90;1686092;85;21196;-55
2021/05/15 08:03:19;;;;;;;3.90;2.00;;;;;;;21.13;52.30;100198.97;1698057;84;21247;-55
2021/05/15 08:06:24;;;;;;;4.58;1.77;;;;;;;21.18;51.71;100207.42;1702631;84;21337;-56
2021/05/15 08:09:30;;;;;;;5.17;2.17;;;;;;;21.24;51.97;100195.28;1702903;84;21697;-55
2021/05/15 08:12:36;;;;;;;5.72;2.20;;;;;;;21.34;51.18;100201.91;1703132;83;21732;-55
2021/05/15 08:15:42;;;;;;;3.90;2.20;;;;;;;21.41;51.08;100197.01;1715150;83;21878;-54
2021/05/15 08:18:47;;;;;;;4.70;1.87;;;;;;;21.50;50.57;100200.23;1715921;82;21377;-54
2021/05/15 08:21:53;;;;;;;6.40;2.52;;;;;;;21.56;49.92;100201.48;1715649;83;21479;-55
2021/05/15 08:25:01;;;;;;;4.22;2.10;;;;;;;21.60;50.23;100202.64;1715683;83;21350;-57
2021/05/15 08:28:11;;;;;;;3.75;1.80;;;;;;;21.65;49.42;100204.13;1716015;82;21373;-57
2021/05/15 08:31:17;;;;;;;6.75;1.85;;;;;;;21.72;48.78;100203.41;1715216;83;21212;-54
2021/05/15 08:34:21;;;;;;;8.05;2.65;;;;;;;21.77;48.97;100213.28;1715645;82;21377;-57
2021/05/15 08:37:26;;;;;;;4.37;2.00;;;;;;;21.85;48.68;100214.83;1715818;82;21503;-57
2021/05/15 08:40:31;;;;;;;5.67;2.58;;;;;;;21.89;49.07;100206.24;1715939;82;21357;-56
2021/05/15 08:43:36;;;;;;;3.30;2.20;;;;;;;21.96;48.45;100204.14;1715801;83;21879;-55
2021/05/15 08:46:40;;;;;;;4.78;2.08;;;;;;;22.08;49.30;100211.85;1710065;82;21248;-57
2021/05/15 08:49:44;;;;;;;2.98;2.00;;;;;;;22.14;48.09;100217.26;1713969;83;21220;-58
2021/05/15 08:52:55;;;;;;;5.80;2.30;;;;;;;22.20;47.76;100220.41;1712242;82;22047;-60
2021/05/15 08:55:58;;;;;;;4.55;2.37;;;;;;;22.30;48.01;100218.87;1713956;83;21883;-56
2021/05/15 08:59:05;;;;;;;5.30;2.30;;;;;;;22.41;47.94;100215.98;1713914;82;21373;-54
2021/05/15 09:02:10;;;;;;;4.58;1.90;;;;;;;22.53;47.87;100213.98;1714803;82;21868;-53
2021/05/15 09:05:18;;;;;;;5.05;1.90;;;;;;;22.67;47.84;100213.03;1681453;84;22017;-54
2021/05/15 09:08:23;;;;;;;4.05;2.10;;;;;;;22.82;48.10;100216.02;1696657;83;21951;-54
2021/05/15 09:11:32;;;;;;;7.65;2.25;;;;;;;22.97;47.49;100210.64;1696961;84;21737;-55
2021/05/15 09:14:38;;;;;;;22.13;4.55;;;;;;;23.11;46.94;100214.71;1693979;84;21220;-55
2021/05/15 09:17:57;;;;;;;4.30;1.60;;;;;;;23.23;45.95;100213.45;1697003;83;22191;-58
2021/05/15 09:21:06;;;;;;;2.92;1.75;;;;;;;23.37;45.12;100215.33;1697264;84;21248;-54
2021/05/15 09:24:14;;;;;;;3.33;1.70;;;;;;;23.30;44.45;100215.54;1698029;83;21438;-54
2021/05/15 09:27:19;;;;;;;27.00;6.33;;;;;;;23.26;44.59;100221.92;1646167;83;21220;-54
2021/05/15 09:30:24;;;;;;;5.60;2.30;;;;;;;23.39;45.05;100215.89;1663570;86;21254;-55
2021/05/15 09:33:30;;;;;;;8.18;2.92;;;;;;;23.64;44.79;100217.57;1663318;85;21237;-59
2021/05/15 09:36:43;;;;;;;2.37;1.57;;;;;;;23.89;43.98;100223.39;1652487;84;21248;-55
2021/05/15 09:39:49;;;;;;;2.65;1.65;;;;;;;24.05;43.41;100223.84;1688913;84;21216;-55
2021/05/15 09:42:56;;;;;;;37.33;6.50;;;;;;;24.16;42.82;100214.96;1688353;84;21224;-54
2021/05/15 09:46:01;;;;;;;10.50;2.00;;;;;;;24.27;43.28;100216.17;1693863;83;21185;-56
2021/05/15 09:49:09;;;;;;;3.00;1.65;;;;;;;24.46;42.58;100217.97;1707216;83;21381;-57
2021/05/15 09:52:16;;;;;;;5.12;1.70;;;;;;;24.52;41.16;100220.53;1709500;83;21391;-56
2021/05/15 09:55:21;;;;;;;2.45;1.25;;;;;;;24.60;41.07;100224.77;1694122;83;21972;-55
2021/05/15 09:58:28;;;;;;;2.22;1.50;;;;;;;24.77;41.21;100223.50;1687806;83;21731;-59
2021/05/15 10:01:34;;;;;;;5.10;1.70;;;;;;;24.77;40.17;100223.50;1676261;85;21213;-56
2021/05/15 10:04:40;;;;;;;3.55;1.40;;;;;;;24.70;40.77;100215.92;1680546;84;21238;-56
2021/05/15 10:07:51;;;;;;;2.15;1.40;;;;;;;24.83;41.45;100216.80;1677002;85;21382;-55
2021/05/15 10:11:04;;;;;;;4.65;1.60;;;;;;;25.01;40.36;100214.94;1697108;83;21257;-56
2021/05/15 10:14:09;;;;;;;3.37;1.40;;;;;;;25.10;40.01;100213.01;1672743;84;21233;-56
2021/05/15 10:17:15;;;;;;;3.20;1.42;;;;;;;25.27;39.13;100217.81;1653554;83;21209;-56
2021/05/15 10:20:20;;;;;;;3.15;1.32;;;;;;;25.37;38.79;100211.70;1708080;84;21338;-57
2021/05/15 10:23:34;;;;;;;3.45;1.22;;;;;;;25.54;39.35;100214.28;1709303;82;21220;-57
2021/05/15 10:26:39;;;;;;;4.00;1.32;;;;;;;25.72;39.35;100215.16;1715519;82;21370;-56
2021/05/15 10:30:01;;;;;;;2.95;1.50;;;;;;;25.88;38.16;100211.22;1714957;82;21346;-56
2021/05/15 10:33:09;;;;;;;4.55;1.60;;;;;;;25.95;37.97;100208.44;1690288;84;21236;-58
2021/05/15 10:36:17;;;;;;;1.60;1.30;;;;;;;26.15;37.60;100214.06;1673495;85;21403;-56
2021/05/15 10:39:40;;;;;;;2.15;1.25;;;;;;;26.27;37.10;100213.19;1706839;82;21251;-56
2021/05/15 10:42:47;;;;;;;6.05;1.37;;;;;;;26.01;36.62;100205.94;1707933;82;21355;-56
2021/05/15 10:45:55;;;;;;;2.42;1.20;;;;;;;25.90;38.24;100210.37;1708251;84;21732;-58
2021/05/15 10:49:15;;;;;;;1.62;1.30;;;;;;;25.90;38.12;100204.22;1708321;82;21398;-56
2021/05/15 10:52:23;;;;;;;7.47;2.08;;;;;;;26.08;37.45;100198.64;1708640;82;21478;-56
2021/05/15 10:55:41;;;;;;;2.55;1.55;;;;;;;26.23;36.21;100205.08;1707552;84;21180;-56
2021/05/15 10:58:59;;;;;;;2.45;1.37;;;;;;;26.29;36.56;100207.33;1705158;82;21792;-56
2021/05/15 11:02:09;;;;;;;3.20;1.20;;;;;;;26.38;36.08;100198.59;1719817;82;21228;-57
2021/05/15 11:05:23;;;;;;;1.50;1.27;;;;;;;26.54;35.03;100202.21;1705827;84;21750;-56
2021/05/15 11:08:36;;;;;;;3.10;1.20;;;;;;;26.74;34.29;100210.05;1705010;84;21773;-57
2021/05/15 11:11:48;;;;;;;1.75;1.20;;;;;;;26.91;33.69;100204.10;1704766;84;21240;-56
2021/05/15 11:14:56;;;;;;;2.83;1.37;;;;;;;27.07;33.78;100205.14;1706928;82;21927;-57
2021/05/15 11:18:09;;;;;;;2.67;1.65;;;;;;;27.26;35.26;100194.95;1714726;82;21757;-57
2021/05/15 11:21:15;;;;;;;3.33;1.55;;;;;;;27.42;35.11;100190.92;1702749;84;21192;-57
2021/05/15 11:24:20;;;;;;;4.05;1.75;;;;;;;27.62;33.96;100192.18;1727608;83;21715;-57
2021/05/15 11:27:25;;;;;;;2.08;1.22;;;;;;;27.62;33.65;100187.97;1730590;83;21232;-56
2021/05/15 11:30:39;;;;;;;2.30;1.30;;;;;;;27.70;33.94;100186.52;1736500;81;21187;-55
2021/05/15 11:33:48;;;;;;;2.65;1.10;;;;;;;27.72;33.66;100191.27;1727852;81;21203;-56
2021/05/15 11:36:54;;;;;;;1.62;1.22;;;;;;;27.68;33.24;100188.78;1733934;82;21186;-57
2021/05/15 11:40:03;;;;;;;5.42;1.55;;;;;;;27.79;32.91;100180.53;1731444;83;21716;-56
2021/05/15 11:43:11;;;;;;;1.62;1.07;;;;;;;27.80;33.09;100190.64;1731797;81;21806;-57
2021/05/15 11:46:19;;;;;;;1.80;1.07;;;;;;;27.68;32.74;100188.23;1731354;83;22061;-56
2021/05/15 11:49:34;;;;;;;3.00;1.42;;;;;;;27.61;33.17;100183.48;1750267;81;21747;-55
2021/05/15 11:52:42;;;;;;;4.50;1.20;;;;;;;27.69;34.17;100182.86;1755246;80;21866;-56
2021/05/15 11:55:47;;;;;;;5.05;1.30;;;;;;;27.95;34.35;100175.65;1755522;81;21735;-57
2021/05/15 11:59:04;;;;;;;5.62;1.75;;;;;;;28.19;33.24;100182.19;1747154;80;21199;-57
2021/05/15 12:02:11;;;;;;;3.85;1.30;;;;;;;28.23;33.24;100177.62;1729432;81;21196;-57
2021/05/15 12:05:26;;;;;;;4.28;1.75;;;;;;;28.41;32.42;100172.11;1708867;83;21240;-56
2021/05/15 12:08:31;;;;;;;4.53;1.52;;;;;;;28.43;32.40;100163.36;1730721;82;21222;-57
2021/05/15 12:11:38;;;;;;;4.03;1.40;;;;;;;28.60;32.86;100167.98;1728988;83;21219;-58
2021/05/15 12:14:46;;;;;;;4.97;3.60;;;;;;;28.68;31.86;100160.28;1704049;84;21792;-58
2021/05/15 12:17:52;;;;;;;6.40;3.37;;;;;;;28.64;31.89;100166.23;1699804;83;21247;-57
2021/05/15 12:20:59;;;;;;;5.92;2.22;;;;;;;28.65;31.99;100153.28;1687436;84;21385;-56
2021/05/15 12:24:14;;;;;;;5.20;1.35;;;;;;;28.51;32.26;100160.73;1693658;83;21366;-56
2021/05/15 12:27:22;;;;;;;1.75;1.17;;;;;;;28.39;31.87;100158.87;1687453;83;21843;-57
2021/05/15 12:30:29;;;;;;;1.90;1.20;;;;;;;28.48;32.06;100161.94;1687075;85;21361;-56
2021/05/15 12:33:35;;;;;;;2.20;1.42;;;;;;;28.59;31.54;100160.68;1687372;83;21251;-56
2021/05/15 12:36:43;;;;;;;3.12;1.20;;;;;;;28.62;31.87;100164.30;1687398;85;21267;-57
2021/05/15 12:39:48;;;;;;;1.62;1.12;;;;;;;28.73;31.58;100151.77;1687351;85;21898;-57
2021/05/15 12:42:54;;;;;;;2.77;1.22;;;;;;;28.90;31.91;100153.52;1687254;83;21393;-57
2021/05/15 12:45:59;;;;;;;5.83;2.00;;;;;;;28.97;30.54;100147.77;1687231;85;21361;-58
2021/05/15 12:49:08;;;;;;;4.15;2.00;;;;;;;28.99;31.11;100150.28;1654187;85;21239;-57
2021/05/15 12:52:25;;;;;;;3.02;1.25;;;;;;;28.96;30.92;100152.30;1687401;83;21709;-56
2021/05/15 12:55:30;;;;;;;4.70;2.25;;;;;;;28.98;31.00;100148.62;1687210;85;21215;-56
2021/05/15 12:58:36;;;;;;;4.85;2.08;;;;;;;29.01;30.64;100144.63;1687101;83;21397;-57
2021/05/15 13:01:41;;;;;;;7.37;1.50;;;;;;;29.03;30.83;100150.78;1687259;85;21433;-57
2021/05/15 13:04:48;;;;;;;11.70;6.35;;;;;;;29.09;30.72;100153.01;1686778;85;21381;-58
2021/05/15 13:07:56;;;;;;;7.83;2.25;;;;;;;29.09;30.83;100147.38;1687262;82;21397;-58
2021/05/15 13:11:01;;;;;;;4.95;2.75;;;;;;;29.09;31.23;100153.01;1699139;83;21338;-57
2021/05/15 13:14:07;;;;;;;4.00;2.30;;;;;;;28.87;30.74;100158.34;1715455;83;21446;-57
2021/05/15 13:17:14;;;;;;;4.70;2.02;;;;;;;28.53;30.77;100157.06;1715865;83;21949;-57
2021/05/15 13:20:22;;;;;;;4.60;1.32;;;;;;;28.25;31.36;100157.91;1717831;79;21373;-56
2021/05/15 13:23:31;;;;;;;3.58;1.50;;;;;;;27.95;31.56;100157.35;1714145;83;21232;-56
2021/05/15 13:26:37;;;;;;;3.98;1.30;;;;;;;27.61;31.89;100159.57;1713483;83;21457;-57
2021/05/15 13:29:43;;;;;;;3.47;1.00;;;;;;;27.34;32.21;100152.17;1707737;83;21379;-57
2021/05/15 13:32:48;;;;;;;4.78;1.70;;;;;;;27.37;32.80;100157.80;1705269;83;21371;-56
2021/05/15 13:35:55;;;;;;;5.80;1.80;;;;;;;27.71;32.24;100156.69;1705808;83;21234;-56
2021/05/15 13:39:01;;;;;;;3.12;1.15;;;;;;;27.84;31.68;100170.06;1706636;83;21251;-57
2021/05/15 13:42:07;;;;;;;19.42;10.55;;;;;;;27.64;31.93;100160.95;1705536;83;21224;-58
2021/05/15 13:45:13;;;;;;;7.97;4.60;;;;;;;27.57;32.17;100159.05;1705578;83;21181;-57
2021/05/15 13:48:41;;;;;;;11.83;4.85;;;;;;;27.28;32.71;100158.11;1705369;83;21350;-56
2021/05/15 13:51:26;;;;;;;8.25;3.40;;;;;;;27.10;33.49;100160.17;1705215;83;21177;-55
2021/05/15 13:54:31;;;;;;;7.83;4.37;;;;;;;26.89;33.67;100160.84;1705278;83;21454;-57
2021/05/15 13:57:37;;;;;;;6.72;2.70;;;;;;;26.68;33.87;100162.05;1705496;83;21433;-55
2021/05/15 14:00:43;;;;;;;7.97;2.75;;;;;;;26.58;34.10;100164.84;1705216;83;21272;-57
2021/05/15 14:03:49;;;;;;;2.58;1.60;;;;;;;26.53;33.76;100171.05;1705048;83;21272;-56
2021/05/15 14:06:55;;;;;;;7.20;3.00;;;;;;;26.34;34.36;100174.45;1705109;83;21860;-56
2021/05/15 14:10:01;;;;;;;7.40;2.87;;;;;;;26.15;34.64;100171.96;1705137;83;21213;-58
2021/05/15 14:13:06;;;;;;;6.47;1.95;;;;;;;25.95;35.25;100180.93;1705108;83;21232;-56
2021/05/15 14:16:11;;;;;;;3.92;1.80;;;;;;;25.76;35.83;100182.06;1710973;83;21342;-57
2021/05/15 14:19:16;;;;;;;4.67;1.70;;;;;;;25.57;36.69;100177.27;1719706;82;21220;-57
2021/05/15 14:22:23;;;;;;;3.70;1.50;;;;;;;25.57;36.53;100183.73;1684623;84;21294;-57
2021/05/15 14:25:27;;;;;;;2.67;1.40;;;;;;;25.83;36.05;100174.77;1684024;84;21396;-57
2021/05/15 14:28:33;;;;;;;4.20;1.95;;;;;;;26.03;35.72;100180.40;1679790;83;21245;-56
2021/05/15 14:31:39;;;;;;;3.05;1.40;;;;;;;26.10;36.46;100173.95;1669609;84;21241;-57